Wednesday, June 20, 2018, 6:40 PM EDT
Back to Local

KSYR, Syracuse Hancock International Airport

Location: Syracuse, NY, United States Lat: 43.117
Local Time: 6:40 PM EDT (22:40 GMT) Lon: -76.1
Time Zone: US/Eastern Elev: 410 ft

Show me the last for .
Show Decoded

2018-06-20 17:54 METAR KSYR 202154Z 33006KT 10SM BKN200 24/12 A2981 RMK AO2 SLP090 T02390117 =
2018-06-20 16:54 METAR KSYR 202054Z 00000KT 10SM SCT150 BKN200 23/12 A2982 RMK AO2 SLP094
                 T02280122 58013 =
2018-06-20 15:54 METAR KSYR 201954Z 26005KT 10SM BKN150 BKN200 23/11 A2984 RMK AO2 SLP100
                 T02330111 =
2018-06-20 14:54 METAR KSYR 201854Z 00000KT 10SM BKN150 OVC200 22/12 A2985 RMK AO2 SLP105
                 T02220122 =
2018-06-20 13:54 METAR KSYR 201754Z 00000KT 10SM BKN150 OVC200 22/12 A2986 RMK AO2 SLP108
                 T02170122 10217 20144 58012 =
2018-06-20 12:54 METAR KSYR 201654Z 07003KT 10SM BKN150 OVC200 21/13 A2987 RMK AO2 SLP113
                 T02060133 =
2018-06-20 11:54 METAR KSYR 201554Z 00000KT 10SM BKN150 OVC200 19/14 A2990 RMK AO2 SLP122
                 T01890139 =
2018-06-20 10:54 METAR KSYR 201454Z 04003KT 10SM FEW090 BKN180 BKN200 18/14 A2990 RMK AO2 SLP120
                 T01780139 58015 =
2018-06-20 09:54 METAR KSYR 201354Z 00000KT 10SM FEW090 BKN180 BKN200 17/13 A2992 RMK AO2 SLP127
                 T01720128 =
2018-06-20 08:54 METAR KSYR 201254Z 00000KT 10SM FEW090 BKN180 BKN200 16/12 A2993 RMK AO2 SLP131
                 T01560122 =
2018-06-20 07:54 METAR KSYR 201154Z 00000KT 10SM FEW090 BKN190 BKN230 14/12 A2994 RMK AO2 SLP136
                 T01440122 10144 20106 51006 =
2018-06-20 06:54 METAR KSYR 201054Z 13003KT 10SM FEW100 SCT180 BKN240 13/12 A2994 RMK AO2 SLP134
                 T01330122 =
2018-06-20 05:54 METAR KSYR 200954Z 00000KT 10SM FEW180 FEW250 11/11 A2994 RMK AO2 SLP135
                 T01110111 =
2018-06-20 04:54 METAR KSYR 200854Z 00000KT 10SM FEW200 FEW250 11/11 A2993 RMK AO2 SLP130
                 T01110111 56005 =
2018-06-20 03:54 METAR KSYR 200754Z 16003KT 10SM SCT250 12/12 A2992 RMK AO2 SLP129 T01220117 =
2018-06-20 02:54 METAR KSYR 200654Z 11003KT 10SM FEW150 SCT250 12/12 A2993 RMK AO2 SLP131
                 T01220122 =
2018-06-20 01:54 METAR KSYR 200554Z 00000KT 10SM FEW150 FEW180 SCT250 13/12 A2994 RMK AO2 SLP135
                 SCT V BKN T01280122 10194 20128 58005 =
2018-06-20 00:54 METAR KSYR 200454Z 00000KT 10SM FEW180 OVC240 14/13 A2995 RMK AO2 SLP138 OVC V
                 BKN T01390128 402280139 =
2018-06-19 23:54 METAR KSYR 200354Z 00000KT 10SM FEW150 BKN240 14/12 A2995 RMK AO2 SLP138
                 T01440122 =
2018-06-19 22:54 METAR KSYR 200254Z 36003KT 10SM SCT150 BKN250 15/12 A2996 RMK AO2 SLP141
                 T01500122 53003 =
2018-06-19 21:54 METAR KSYR 200154Z 35003KT 10SM BKN150 BKN250 17/12 A2995 RMK AO2 SLP138
                 T01670117 =
2018-06-19 20:54 METAR KSYR 200054Z 32006KT 10SM FEW120 SCT150 BKN200 18/12 A2995 RMK AO2 SLP136
                 T01830117 =
2018-06-19 19:54 METAR KSYR 192354Z 30008KT 10SM FEW120 SCT150 BKN250 19/11 A2995 RMK AO2 SLP137
                 T01940111 10228 20194 53001 =
2018-06-19 18:54 METAR KSYR 192254Z 32007KT 10SM FEW150 SCT250 21/12 A2993 RMK AO2 SLP131
                 T02110117 =

Support USWX by starting your Amazon purchase here.